Time;durP1;ratioP1;P1;durP2;ratioP2;P2;SDS_P1;SDS_P2;PMS_P1;PMS_P2;Temp;Humidity;BMP_temperature;BMP_pressure;BME280_temperature;BME280_humidity;BME280_pressure;Samples;Min_cycle;Max_cycle;Signal;HPM_P1;HPM_P2
2022/04/10 00:00:28;;;;;;;7.97;3.03;;;;;;;0.37;100.00;99189.03;5151993;27;20043;-82
2022/04/10 00:02:56;;;;;;;4.38;2.78;;;;;;;0.31;100.00;99187.69;5150571;27;20049;-82
2022/04/10 00:05:23;;;;;;;4.13;2.28;;;;;;;0.38;100.00;99200.56;5152788;27;20042;-82
2022/04/10 00:07:50;;;;;;;4.10;2.40;;;;;;;0.29;100.00;99195.00;5149228;27;20043;-83
2022/04/10 00:10:17;;;;;;;5.60;2.60;;;;;;;0.28;100.00;99198.63;5141502;27;20047;-82
2022/04/10 00:12:43;;;;;;;9.07;2.80;;;;;;;0.26;100.00;99192.56;5152707;27;20115;-82
2022/04/10 00:15:11;;;;;;;4.85;2.53;;;;;;;0.24;100.00;99191.84;5151196;27;20042;-82
2022/04/10 00:17:37;;;;;;;11.63;3.13;;;;;;;0.18;100.00;99189.59;5148114;27;20103;-83
2022/04/10 00:20:07;;;;;;;9.07;2.45;;;;;;;0.23;100.00;99200.81;5152615;27;20043;-82
2022/04/10 00:22:40;;;;;;;4.10;2.42;;;;;;;0.23;100.00;99181.25;5148665;27;20139;-82
2022/04/10 00:25:08;;;;;;;2.67;2.00;;;;;;;0.17;100.00;99179.91;5146607;27;20303;-82
2022/04/10 00:27:34;;;;;;;7.68;3.25;;;;;;;0.25;100.00;99198.03;5152579;27;20051;-82
2022/04/10 00:30:01;;;;;;;2.83;2.17;;;;;;;0.28;100.00;99203.97;5161574;27;20043;-82
2022/04/10 00:32:28;;;;;;;4.07;2.53;;;;;;;0.09;100.00;99187.63;5151982;27;20126;-82
2022/04/10 00:34:55;;;;;;;3.75;3.08;;;;;;;-0.03;100.00;99184.94;5151739;27;20147;-83
2022/04/10 00:37:23;;;;;;;4.10;2.55;;;;;;;-0.01;100.00;99193.69;5152953;27;20533;-82
2022/04/10 00:39:49;;;;;;;2.85;2.28;;;;;;;-0.05;100.00;99194.03;5151607;27;20384;-82
2022/04/10 00:42:16;;;;;;;5.97;2.95;;;;;;;0.08;100.00;99199.31;5138908;27;20057;-82
2022/04/10 00:44:42;;;;;;;7.00;3.38;;;;;;;-0.12;100.00;99187.47;5151853;27;20050;-82
2022/04/10 00:47:10;;;;;;;6.13;3.22;;;;;;;-0.14;100.00;99200.09;5155677;27;20042;-82
2022/04/10 00:49:36;;;;;;;6.32;3.67;;;;;;;-0.01;100.00;99201.72;5151686;27;20077;-82
2022/04/10 00:52:06;;;;;;;3.90;2.65;;;;;;;0.02;100.00;99208.66;5151083;27;20401;-82
2022/04/10 00:54:35;;;;;;;6.22;2.83;;;;;;;-0.01;100.00;99201.72;5151272;27;20466;-82
2022/04/10 00:57:03;;;;;;;5.05;2.33;;;;;;;0.11;100.00;99205.28;5151854;27;20046;-82
2022/04/10 00:59:30;;;;;;;5.93;2.80;;;;;;;0.18;100.00;99211.00;5148948;27;20047;-82
2022/04/10 01:01:56;;;;;;;4.55;2.78;;;;;;;0.04;100.00;99185.31;5124521;27;20044;-82
2022/04/10 01:04:23;;;;;;;7.78;3.30;;;;;;;-0.06;100.00;99187.84;5168932;27;20048;-82
2022/04/10 01:06:52;;;;;;;7.00;2.92;;;;;;;0.17;100.00;99203.97;5171607;27;20050;-82
2022/04/10 01:09:20;;;;;;;6.28;2.78;;;;;;;0.23;100.00;99200.81;5150762;27;20486;-82
2022/04/10 01:11:48;;;;;;;4.80;3.15;;;;;;;0.42;100.00;99229.66;5151767;27;20137;-82
2022/04/10 01:14:15;;;;;;;11.48;2.80;;;;;;;0.53;100.00;99218.13;5151084;27;20152;-81
2022/04/10 01:16:42;;;;;;;6.60;3.13;;;;;;;0.55;100.00;99212.66;5146183;27;20058;-82
2022/04/10 01:19:10;;;;;;;9.40;3.70;;;;;;;0.42;100.00;99210.94;5142323;27;20054;-82
2022/04/10 01:21:43;;;;;;;9.48;4.55;;;;;;;0.43;100.00;99225.16;5171351;27;20050;-81
2022/04/10 01:24:12;;;;;;;11.00;4.45;;;;;;;0.31;100.00;99195.72;5147681;27;20054;-82
2022/04/10 01:26:39;;;;;;;6.60;3.50;;;;;;;0.43;100.00;99230.50;5151547;27;20089;-82
2022/04/10 01:29:08;;;;;;;8.65;2.95;;;;;;;0.27;100.00;99210.31;5151943;27;20389;-81
2022/04/10 01:31:36;;;;;;;4.97;2.83;;;;;;;0.33;100.00;99222.34;5151167;27;20047;-82
2022/04/10 01:34:05;;;;;;;8.45;3.53;;;;;;;0.35;100.00;99231.94;5143847;27;20054;-82
2022/04/10 01:36:32;;;;;;;4.20;3.40;;;;;;;0.37;100.00;99236.34;5147334;27;20069;-82
2022/04/10 01:39:00;;;;;;;6.97;3.22;;;;;;;0.27;100.00;99215.66;5150839;27;20055;-82
2022/04/10 01:41:30;;;;;;;8.43;3.17;;;;;;;0.41;100.00;99229.78;5151199;27;20058;-82
2022/04/10 01:43:59;;;;;;;3.75;3.20;;;;;;;0.37;100.00;99221.13;5145477;27;20050;-82
2022/04/10 01:46:28;;;;;;;6.55;3.40;;;;;;;0.42;100.00;99221.66;5140428;27;20231;-81
2022/04/10 01:48:55;;;;;;;7.93;3.25;;;;;;;0.48;100.00;99226.53;5147830;27;20039;-82
2022/04/10 01:51:22;;;;;;;7.53;3.25;;;;;;;0.46;100.00;99225.75;5141337;27;20054;-82
2022/04/10 01:53:49;;;;;;;6.38;3.05;;;;;;;0.45;100.00;99231.25;5148602;27;20103;-82
2022/04/10 01:56:15;;;;;;;5.13;2.97;;;;;;;0.46;100.00;99235.63;5146271;27;20251;-82
2022/04/10 01:58:46;;;;;;;3.88;2.65;;;;;;;0.28;100.00;99227.19;5146917;27;20047;-82
2022/04/10 02:01:14;;;;;;;5.10;2.63;;;;;;;0.25;100.00;99222.94;5148733;27;20043;-82
2022/04/10 02:03:41;;;;;;;9.93;3.15;;;;;;;0.46;100.00;99216.91;5151067;27;20046;-82
2022/04/10 02:06:09;;;;;;;3.95;2.95;;;;;;;0.36;100.00;99224.78;5152809;27;20043;-82
2022/04/10 02:08:36;;;;;;;4.05;2.78;;;;;;;0.28;100.00;99227.19;5150548;27;20402;-82
2022/04/10 02:11:09;;;;;;;3.40;2.47;;;;;;;0.17;100.00;99225.34;5153148;27;20046;-82
2022/04/10 02:13:35;;;;;;;3.30;2.60;;;;;;;0.13;100.00;99234.56;5150729;27;20054;-81
2022/04/10 02:16:04;;;;;;;4.72;3.20;;;;;;;0.01;100.00;99220.31;5149342;27;20039;-82
2022/04/10 02:18:30;;;;;;;6.80;3.38;;;;;;;0.10;100.00;99208.91;5151808;27;20058;-82
2022/04/10 02:20:57;;;;;;;5.88;3.15;;;;;;;0.15;100.00;99222.78;5150747;27;20044;-82
2022/04/10 02:23:23;;;;;;;6.72;2.97;;;;;;;0.13;100.00;99231.88;5151469;27;20067;-82
2022/04/10 02:25:50;;;;;;;8.90;2.85;;;;;;;-0.10;100.00;99223.78;5151954;27;20409;-82
2022/04/10 02:28:16;;;;;;;7.45;3.42;;;;;;;-0.19;100.00;99206.63;5152260;27;20078;-82
2022/04/10 02:30:43;;;;;;;4.38;2.60;;;;;;;-0.15;100.00;99222.44;5142519;27;20051;-82
2022/04/10 02:33:11;;;;;;;4.88;2.97;;;;;;;-0.19;100.00;99216.47;5151234;27;20051;-82
2022/04/10 02:35:38;;;;;;;6.85;2.90;;;;;;;-0.10;100.00;99228.28;5152657;27;20050;-82
2022/04/10 02:38:05;;;;;;;4.35;2.88;;;;;;;-0.20;100.00;99225.44;5151601;27;20045;-82
2022/04/10 02:40:31;;;;;;;6.03;3.33;;;;;;;-0.16;100.00;99234.94;5152425;27;20046;-82
2022/04/10 02:42:58;;;;;;;6.85;3.15;;;;;;;-0.33;100.00;99224.66;5151367;27;20043;-82
2022/04/10 02:45:24;;;;;;;8.00;2.97;;;;;;;-0.31;100.00;99238.78;5152440;27;20051;-83
2022/04/10 02:47:51;;;;;;;4.22;3.03;;;;;;;-0.49;100.00;99222.28;5148243;27;20055;-82
2022/04/10 02:50:19;;;;;;;6.03;3.00;;;;;;;-0.55;100.00;99223.59;5151543;27;20073;-82
2022/04/10 02:52:45;;;;;;;4.38;3.30;;;;;;;-0.51;100.00;99243.75;5151400;27;20047;-82
2022/04/10 02:55:12;;;;;;;6.40;3.10;;;;;;;-0.40;100.00;99227.78;5151414;27;20039;-82
2022/04/10 02:57:39;;;;;;;3.90;3.00;;;;;;;-0.51;100.00;99210.84;5152100;27;20200;-82
2022/04/10 03:00:07;;;;;;;5.65;3.28;;;;;;;-0.50;100.00;99217.91;5152375;27;20068;-82
2022/04/10 03:02:33;;;;;;;11.05;3.20;;;;;;;-0.49;100.00;99233.81;5149612;27;20038;-82
2022/04/10 03:05:00;;;;;;;3.15;2.55;;;;;;;-0.48;100.00;99235.53;5147211;27;20061;-82
2022/04/10 03:07:28;;;;;;;5.75;2.97;;;;;;;-0.48;100.00;99243.53;5146422;27;20050;-83
2022/04/10 03:09:55;;;;;;;5.45;2.90;;;;;;;-0.52;100.00;99249.22;5154194;27;20133;-82
2022/04/10 03:12:21;;;;;;;7.40;3.20;;;;;;;-0.62;100.00;99236.50;5153358;27;20050;-82
2022/04/10 03:14:48;;;;;;;3.70;2.78;;;;;;;-0.62;100.00;99238.34;5153580;27;20043;-83
2022/04/10 03:17:14;;;;;;;6.40;3.50;;;;;;;-0.60;100.00;99250.63;5154254;27;20045;-82
2022/04/10 03:19:41;;;;;;;4.23;3.10;;;;;;;-0.76;100.00;99232.19;5154043;27;20413;-83
2022/04/10 03:22:07;;;;;;;4.45;2.85;;;;;;;-0.73;100.00;99245.31;5153296;27;20054;-83
2022/04/10 03:24:35;;;;;;;5.00;3.40;;;;;;;-0.88;100.00;99235.75;5155223;27;20049;-82
2022/04/10 03:27:02;;;;;;;5.17;2.73;;;;;;;-0.86;100.00;99240.97;5153674;27;20053;-83
2022/04/10 03:29:29;;;;;;;4.70;3.07;;;;;;;-0.89;100.00;99255.38;5153341;27;20061;-83
2022/04/10 03:31:55;;;;;;;5.30;3.70;;;;;;;-0.73;100.00;99260.47;5155014;27;20601;-83
2022/04/10 03:34:22;;;;;;;4.80;3.13;;;;;;;-0.73;100.00;99264.00;5153975;27;20051;-83
2022/04/10 03:36:48;;;;;;;5.13;3.27;;;;;;;-0.88;100.00;99250.91;5148809;27;20540;-82
2022/04/10 03:39:15;;;;;;;8.03;3.60;;;;;;;-0.88;100.00;99265.09;5155579;27;20034;-83
2022/04/10 03:41:43;;;;;;;4.70;3.13;;;;;;;-1.14;100.00;99246.47;5155205;27;20088;-83
2022/04/10 03:44:09;;;;;;;4.20;3.30;;;;;;;-1.12;100.00;99263.22;5155259;27;20045;-83
2022/04/10 03:46:36;;;;;;;5.03;3.30;;;;;;;-1.11;100.00;99275.59;5155135;27;20500;-83
2022/04/10 03:49:03;;;;;;;4.23;3.00;;;;;;;-1.05;100.00;99287.66;5155477;27;20046;-83
2022/04/10 03:51:29;;;;;;;7.87;3.73;;;;;;;-1.13;100.00;99274.00;5147573;27;20051;-83
2022/04/10 03:53:56;;;;;;;3.57;2.93;;;;;;;-1.15;100.00;99273.25;5154700;27;20046;-83
2022/04/10 03:56:22;;;;;;;6.87;3.60;;;;;;;-1.01;100.00;99296.28;5155038;27;20486;-83
2022/04/10 03:58:50;;;;;;;12.07;3.80;;;;;;;-1.15;100.00;99279.44;5154959;27;20042;-83
2022/04/10 04:01:17;;;;;;;5.07;3.47;;;;;;;-1.12;100.00;99302.38;5155258;27;20043;-82
2022/04/10 04:03:43;;;;;;;7.13;3.03;;;;;;;-1.19;100.00;99290.44;5154804;27;20046;-83
2022/04/10 04:06:10;;;;;;;7.13;3.33;;;;;;;-1.13;100.00;99304.22;5155333;27;20053;-83
2022/04/10 04:08:38;;;;;;;5.53;3.17;;;;;;;-1.03;100.00;99320.41;5145586;27;20051;-83
2022/04/10 04:11:04;;;;;;;5.67;3.70;;;;;;;-1.03;100.00;99317.75;5146132;27;20079;-82
2022/04/10 04:13:31;;;;;;;9.80;3.57;;;;;;;-1.10;100.00;99320.00;5153926;27;20054;-83
2022/04/10 04:15:59;;;;;;;4.50;3.43;;;;;;;-1.21;100.00;99309.22;5153937;27;20042;-83
2022/04/10 04:18:26;;;;;;;7.63;4.13;;;;;;;-1.20;100.00;99305.59;5154619;27;20042;-83
2022/04/10 04:20:52;;;;;;;5.67;3.50;;;;;;;-1.17;100.00;99324.06;5154234;27;20042;-82
2022/04/10 04:23:19;;;;;;;5.80;3.70;;;;;;;-1.21;100.00;99319.88;5154366;27;20188;-83
2022/04/10 04:25:46;;;;;;;3.63;3.23;;;;;;;-1.09;100.00;99324.38;5153462;27;20111;-82
2022/04/10 04:28:13;;;;;;;7.90;4.10;;;;;;;-1.12;100.00;99339.75;5153818;27;20046;-83
2022/04/10 04:30:39;;;;;;;5.23;3.37;;;;;;;-1.18;100.00;99321.50;5154783;27;20042;-83
2022/04/10 04:33:07;;;;;;;10.67;4.43;;;;;;;-0.92;100.00;99333.00;5154408;27;20046;-83
2022/04/10 04:35:34;;;;;;;5.43;3.93;;;;;;;-1.01;100.00;99334.53;5154110;27;20224;-82
2022/04/10 04:38:01;;;;;;;5.43;3.57;;;;;;;-0.98;100.00;99345.00;5154625;27;20481;-83
2022/04/10 04:40:28;;;;;;;7.00;4.13;;;;;;;-0.99;100.00;99353.09;5153992;27;20379;-83
2022/04/10 04:42:54;;;;;;;4.63;3.77;;;;;;;-0.93;100.00;99347.34;5152434;27;20047;-83
2022/04/10 04:45:22;;;;;;;6.93;3.90;;;;;;;-0.90;100.00;99350.63;5154216;27;20043;-83
2022/04/10 04:47:48;;;;;;;4.93;3.80;;;;;;;-0.95;100.00;99362.59;5154585;27;20051;-82
2022/04/10 04:50:16;;;;;;;6.77;4.47;;;;;;;-0.83;100.00;99360.88;5153984;27;20905;-83
2022/04/10 04:52:43;;;;;;;4.03;3.27;;;;;;;-0.80;100.00;99358.00;5153566;27;20038;-83
2022/04/10 04:55:10;;;;;;;10.20;3.63;;;;;;;-0.77;100.00;99363.09;5154517;27;20427;-83
2022/04/10 04:57:36;;;;;;;6.03;3.73;;;;;;;-0.75;100.00;99364.72;5153028;27;20047;-83
2022/04/10 05:00:04;;;;;;;5.63;3.50;;;;;;;-0.72;100.00;99369.84;5147046;27;20129;-83
2022/04/10 05:02:30;;;;;;;6.40;4.37;;;;;;;-0.73;100.00;99353.94;5153919;27;20038;-83
2022/04/10 05:04:57;;;;;;;5.43;3.90;;;;;;;-0.64;100.00;99369.28;5153279;27;20046;-83
2022/04/10 05:07:25;;;;;;;8.20;4.03;;;;;;;-0.58;100.00;99370.69;5153777;27;20046;-83
2022/04/10 05:09:51;;;;;;;4.87;3.33;;;;;;;-0.61;100.00;99377.09;5153688;27;20051;-83
2022/04/10 05:12:18;;;;;;;9.13;4.20;;;;;;;-0.73;100.00;99368.13;5153378;27;20537;-83
2022/04/10 05:14:45;;;;;;;5.50;3.83;;;;;;;-0.66;100.00;99381.03;5151237;27;20045;-83
2022/04/10 05:17:12;;;;;;;5.40;3.77;;;;;;;-0.67;100.00;99387.38;5144358;27;20042;-82
2022/04/10 05:19:39;;;;;;;6.10;4.10;;;;;;;-0.51;100.00;99388.00;5153665;27;20073;-80
2022/04/10 05:22:06;;;;;;;6.80;4.03;;;;;;;-0.56;100.00;99379.44;5153316;27;20058;-86
2022/04/10 05:24:41;;;;;;;8.43;4.63;;;;;;;-0.50;100.00;99391.50;5153573;27;20553;-84
2022/04/10 05:27:11;;;;;;;6.17;3.43;;;;;;;-0.47;100.00;99397.47;5154061;27;20051;-84
2022/04/10 05:29:37;;;;;;;10.95;4.18;;;;;;;-0.39;100.00;99400.47;5153517;27;20128;-84
2022/04/10 05:32:05;;;;;;;5.03;3.87;;;;;;;-0.33;100.00;99401.84;5151361;27;20089;-84
2022/04/10 05:34:32;;;;;;;7.53;4.57;;;;;;;-0.33;100.00;99390.28;5155173;27;20074;-84
2022/04/10 05:36:58;;;;;;;6.70;3.73;;;;;;;-0.28;100.00;99388.16;5154135;27;20047;-84
2022/04/10 05:39:25;;;;;;;7.43;3.67;;;;;;;-0.23;100.00;99399.34;5154611;27;20327;-84
2022/04/10 05:41:53;;;;;;;9.13;4.57;;;;;;;-0.12;100.00;99386.09;5154468;27;20155;-84
2022/04/10 05:44:19;;;;;;;7.53;3.97;;;;;;;-0.11;100.00;99401.13;5154172;27;20050;-84
2022/04/10 05:46:46;;;;;;;8.60;4.00;;;;;;;0.08;100.00;99410.50;5155187;27;20051;-84
2022/04/10 05:49:13;;;;;;;8.27;4.87;;;;;;;0.24;100.00;99423.59;5152758;27;20034;-84
2022/04/10 05:51:39;;;;;;;7.13;4.15;;;;;;;0.35;100.00;99423.66;5146618;27;20129;-84
2022/04/10 05:54:07;;;;;;;8.80;4.63;;;;;;;0.20;100.00;99408.72;5152871;27;20387;-84
2022/04/10 05:56:33;;;;;;;5.13;3.75;;;;;;;0.54;100.00;99417.78;5152725;27;20046;-84
2022/04/10 05:59:01;;;;;;;8.73;4.68;;;;;;;1.34;100.00;99414.38;5152720;27;20508;-84
2022/04/10 06:01:28;;;;;;;6.32;5.03;;;;;;;2.30;100.00;99421.03;5152762;27;20056;-84
2022/04/10 06:03:55;;;;;;;6.40;4.75;;;;;;;3.12;100.00;99424.13;5150756;27;20582;-84
2022/04/10 06:06:21;;;;;;;7.22;4.03;;;;;;;3.95;100.00;99400.75;5134270;27;20046;-84
2022/04/10 06:08:48;;;;;;;8.05;3.88;;;;;;;4.57;100.00;99412.22;5150833;27;20054;-84
2022/04/10 06:11:14;;;;;;;8.70;4.15;;;;;;;4.96;96.36;99414.91;5151290;27;20042;-84
2022/04/10 06:13:43;;;;;;;6.43;3.88;;;;;;;4.83;95.59;99437.75;5152592;27;20099;-84
2022/04/10 06:16:11;;;;;;;3.70;3.30;;;;;;;4.17;100.00;99423.03;5150621;27;20076;-84
2022/04/10 06:18:37;;;;;;;4.97;3.55;;;;;;;3.56;100.00;99442.78;5152055;27;20038;-84
2022/04/10 06:21:04;;;;;;;5.90;3.13;;;;;;;3.18;100.00;99437.03;5147927;27;20099;-84
2022/04/10 06:23:30;;;;;;;5.75;3.78;;;;;;;2.87;100.00;99436.91;5146872;27;20047;-84
2022/04/10 06:25:57;;;;;;;9.48;4.10;;;;;;;2.88;100.00;99440.47;5152529;27;20118;-83
2022/04/10 06:28:24;;;;;;;6.43;3.75;;;;;;;2.78;100.00;99435.00;5151399;27;20050;-83
2022/04/10 06:30:50;;;;;;;7.65;3.40;;;;;;;2.80;100.00;99443.78;5152783;27;20054;-83
2022/04/10 06:33:18;;;;;;;6.25;3.80;;;;;;;2.83;100.00;99460.50;5152086;27;20070;-84
2022/04/10 06:35:45;;;;;;;5.20;3.15;;;;;;;2.85;100.00;99452.31;5152339;27;20042;-83
2022/04/10 06:38:11;;;;;;;8.02;4.05;;;;;;;2.87;100.00;99460.25;5146453;27;20043;-83
2022/04/10 06:40:38;;;;;;;5.72;3.65;;;;;;;2.80;100.00;99468.81;5145231;27;20042;-81
2022/04/10 06:43:06;;;;;;;8.63;4.25;;;;;;;3.01;100.00;99459.94;5152683;27;20047;-80
2022/04/10 06:45:32;;;;;;;7.13;4.07;;;;;;;2.96;100.00;99446.03;5153886;27;20047;-82
2022/04/10 06:47:59;;;;;;;6.93;4.13;;;;;;;3.13;100.00;99466.97;5153807;27;20100;-81
2022/04/10 06:50:28;;;;;;;7.53;4.10;;;;;;;3.24;100.00;99467.88;5139350;27;20047;-81
2022/04/10 06:52:54;;;;;;;6.32;3.70;;;;;;;3.29;100.00;99466.50;5147987;27;20043;-81
2022/04/10 06:55:20;;;;;;;9.38;3.95;;;;;;;3.25;100.00;99443.59;5147143;27;20401;-81
2022/04/10 06:57:47;;;;;;;10.23;4.50;;;;;;;3.41;100.00;99459.22;5149131;27;20050;-81
2022/04/10 07:00:16;;;;;;;4.95;3.30;;;;;;;3.76;100.00;99470.59;5151548;27;20047;-82
2022/04/10 07:02:42;;;;;;;5.50;3.58;;;;;;;3.80;100.00;99448.69;5151116;27;20410;-81
2022/04/10 07:05:09;;;;;;;8.32;3.92;;;;;;;4.01;100.00;99453.19;5151588;27;20051;-81
2022/04/10 07:07:37;;;;;;;12.77;5.05;;;;;;;4.14;100.00;99458.31;5151833;27;20047;-81
2022/04/10 07:10:04;;;;;;;10.48;4.38;;;;;;;4.22;100.00;99466.56;5146555;27;20065;-81
2022/04/10 07:12:30;;;;;;;5.45;2.92;;;;;;;4.07;100.00;99460.69;5133906;27;20043;-82
2022/04/10 07:15:00;;;;;;;9.50;4.20;;;;;;;4.41;100.00;99465.75;5135474;27;20043;-81
2022/04/10 07:17:27;;;;;;;7.85;4.20;;;;;;;4.47;100.00;99473.28;5151544;27;20054;-82
2022/04/10 07:19:54;;;;;;;8.35;3.13;;;;;;;4.40;100.00;99458.69;5151321;27;20083;-82
2022/04/10 07:25:06;;;;;;;8.32;3.80;;;;;;;4.83;100.00;99467.38;5149915;27;20048;-82
2022/04/10 07:27:33;;;;;;;9.77;3.40;;;;;;;4.75;100.00;99468.91;5145979;27;20046;-82
2022/04/10 07:30:01;;;;;;;6.85;3.67;;;;;;;4.72;97.26;99460.28;5150833;27;20038;-81
2022/04/10 07:32:27;;;;;;;6.60;3.50;;;;;;;4.77;96.59;99453.50;5149846;27;20090;-82
2022/04/10 07:34:57;;;;;;;5.13;3.28;;;;;;;5.11;96.11;99477.31;5151743;27;20070;-82
2022/04/10 07:37:24;;;;;;;5.72;3.40;;;;;;;5.10;97.82;99472.06;5152259;27;20053;-82
2022/04/10 07:39:51;;;;;;;10.82;4.10;;;;;;;5.18;96.19;99472.22;5151585;27;20046;-82
2022/04/10 07:42:19;;;;;;;3.92;3.13;;;;;;;5.21;91.08;99455.75;5141917;27;20205;-81
2022/04/10 07:44:45;;;;;;;9.45;2.72;;;;;;;5.05;86.60;99460.88;5142301;27;20051;-81
2022/04/10 07:47:26;;;;;;;4.20;2.30;;;;;;;5.09;85.32;99468.53;5131151;27;20434;-81
2022/04/10 07:49:54;;;;;;;6.07;2.88;;;;;;;5.32;82.86;99469.06;5131134;28;20049;-81
2022/04/10 07:52:20;;;;;;;5.85;2.42;;;;;;;5.18;84.44;99469.53;5130153;27;20556;-81
2022/04/10 07:54:47;;;;;;;3.40;2.67;;;;;;;5.16;84.39;99467.94;5131963;27;20054;-81
2022/04/10 07:57:14;;;;;;;6.95;2.90;;;;;;;5.31;80.67;99477.28;5153161;27;20050;-81
2022/04/10 07:59:41;;;;;;;5.60;2.42;;;;;;;5.48;80.06;99494.59;5154191;27;20047;-81
2022/04/10 08:02:08;;;;;;;6.28;2.50;;;;;;;5.44;75.75;99493.19;5150843;27;20035;-81
2022/04/10 08:04:35;;;;;;;9.52;2.63;;;;;;;5.34;74.94;99501.28;5134928;27;20559;-81
2022/04/10 08:07:01;;;;;;;7.40;2.42;;;;;;;5.55;74.72;99505.66;5135233;27;20051;-81
2022/04/10 08:09:28;;;;;;;3.45;2.08;;;;;;;5.38;71.68;99515.34;5140526;27;20053;-83
2022/04/10 08:11:55;;;;;;;6.05;2.70;;;;;;;5.44;72.31;99494.03;5156148;27;20074;-82
2022/04/10 08:14:22;;;;;;;9.18;2.85;;;;;;;5.81;72.76;99517.53;5153415;27;20057;-82
2022/04/10 08:16:50;;;;;;;3.55;2.63;;;;;;;5.90;72.65;99509.56;5153094;27;20058;-82
2022/04/10 08:19:16;;;;;;;7.43;2.60;;;;;;;5.94;72.07;99516.38;5115703;27;20050;-82
2022/04/10 08:21:43;;;;;;;5.53;2.53;;;;;;;6.12;70.44;99513.78;5134489;27;20061;-82
2022/04/10 08:24:10;;;;;;;5.57;2.95;;;;;;;5.98;68.70;99523.22;5149278;27;20054;-81
2022/04/10 08:26:47;;;;;;;5.38;2.20;;;;;;;6.21;69.47;99521.00;5155374;27;20058;-87
2022/04/10 08:29:14;;;;;;;6.72;2.42;;;;;;;6.14;69.33;99517.19;5155454;27;20134;-84
2022/04/10 08:31:41;;;;;;;6.65;2.30;;;;;;;6.31;67.69;99527.22;5154520;27;20053;-84
2022/04/10 08:34:11;;;;;;;5.18;2.08;;;;;;;6.40;69.41;99509.25;5145759;27;20125;-84
2022/04/10 08:36:39;;;;;;;9.60;4.75;;;;;;;6.54;68.05;99521.41;5155018;27;20078;-84
2022/04/10 08:39:07;;;;;;;8.88;2.80;;;;;;;6.40;67.56;99524.59;5154647;27;20521;-84
2022/04/10 08:41:37;;;;;;;6.55;2.67;;;;;;;6.31;67.48;99515.56;5155141;27;20508;-84
2022/04/10 08:44:04;;;;;;;;;;;;;;;6.23;67.83;99534.34;5154893;27;20056;-84
2022/04/10 08:46:31;;;;;;;7.07;2.22;;;;;;;6.41;69.89;99539.81;5155014;27;19969;-84
2022/04/10 08:49:00;;;;;;;5.55;3.00;;;;;;;6.54;68.23;99543.03;5153252;27;20050;-84
2022/04/10 08:51:30;;;;;;;3.80;2.63;;;;;;;6.64;65.68;99530.31;5156960;27;20106;-84
2022/04/10 08:53:59;;;;;;;5.82;2.22;;;;;;;6.81;66.45;99538.63;5154896;27;20077;-84
2022/04/10 08:56:25;;;;;;;5.65;2.50;;;;;;;6.72;67.01;99541.22;5155279;27;20051;-84
2022/04/10 08:58:52;;;;;;;5.60;2.63;;;;;;;6.87;67.29;99535.31;5155109;27;20045;-84
2022/04/10 09:01:22;;;;;;;4.75;2.60;;;;;;;7.13;66.69;99529.16;5155167;27;20053;-84
2022/04/10 09:03:49;;;;;;;8.40;3.55;;;;;;;7.30;65.77;99528.31;5153898;27;20042;-84
2022/04/10 09:06:16;;;;;;;6.10;2.88;;;;;;;7.73;67.64;99525.78;5152585;27;20150;-84
2022/04/10 09:08:45;;;;;;;6.47;2.85;;;;;;;7.55;65.16;99521.25;5145944;27;20074;-84
2022/04/10 09:11:12;;;;;;;8.55;3.20;;;;;;;7.75;63.25;99512.94;5154611;27;20046;-84
2022/04/10 09:13:40;;;;;;;9.48;3.15;;;;;;;7.80;63.10;99516.03;5153797;27;20071;-84
2022/04/10 09:16:12;;;;;;;8.30;2.53;;;;;;;7.60;61.73;99523.47;5153174;27;20047;-84
2022/04/10 09:18:53;;;;;;;2.45;1.92;;;;;;;7.36;64.19;99533.09;5154046;27;20043;-84
2022/04/10 09:21:23;;;;;;;5.43;2.38;;;;;;;7.42;64.48;99518.94;5153828;27;20077;-84
2022/04/10 09:23:55;;;;;;;;;;;;;;;7.35;65.25;99535.97;5153003;27;20142;-85
2022/04/10 09:26:22;;;;;;;2.83;2.53;;;;;;;7.47;64.90;99529.31;5139391;27;19923;-84
2022/04/10 09:28:49;;;;;;;9.00;2.97;;;;;;;7.07;66.61;99536.00;5133452;27;20043;-84
2022/04/10 09:31:32;;;;;;;5.85;2.85;;;;;;;7.08;67.06;99541.28;5140689;27;20133;-84
2022/04/10 09:34:01;;;;;;;5.05;2.55;;;;;;;7.41;66.30;99543.44;5153162;27;20489;-84
2022/04/10 09:36:32;;;;;;;5.43;3.08;;;;;;;7.26;67.17;99525.06;5153597;27;20154;-84
2022/04/10 09:39:01;;;;;;;9.38;3.00;;;;;;;7.00;67.41;99533.09;5153701;27;20039;-84
2022/04/10 09:41:27;;;;;;;9.25;3.22;;;;;;;6.70;69.44;99545.94;5144994;27;20150;-84
2022/04/10 09:43:59;;;;;;;4.10;2.50;;;;;;;6.95;68.60;99539.94;5140879;27;20130;-84
2022/04/10 09:46:26;;;;;;;4.90;2.78;;;;;;;6.78;70.05;99544.31;5132776;27;20047;-84
2022/04/10 09:48:53;;;;;;;7.78;2.78;;;;;;;6.89;70.05;99539.56;5133341;27;20051;-84
2022/04/10 09:51:19;;;;;;;7.72;2.90;;;;;;;6.50;70.98;99534.38;5132734;27;20134;-84
2022/04/10 09:56:46;;;;;;;7.45;3.33;;;;;;;6.02;76.01;99544.38;5103264;27;20400;-84
2022/04/10 09:59:15;;;;;;;7.43;3.33;;;;;;;5.83;78.87;99560.56;5102074;28;20054;-84
2022/04/10 10:01:43;;;;;;;3.40;2.63;;;;;;;5.68;81.73;99554.75;5109047;28;20605;-84
2022/04/10 10:04:11;;;;;;;6.22;3.60;;;;;;;5.48;86.12;99562.88;5108059;28;20047;-83
2022/04/10 10:06:38;;;;;;;11.20;3.60;;;;;;;5.25;93.26;99548.81;5108405;28;20048;-83
2022/04/10 10:09:06;;;;;;;6.32;3.10;;;;;;;5.14;91.33;99557.03;5096414;28;20080;-83
2022/04/10 10:11:33;;;;;;;8.45;3.78;;;;;;;5.31;93.44;99575.22;5088033;28;20052;-83
2022/04/10 10:14:01;;;;;;;9.13;3.78;;;;;;;5.50;92.83;99544.69;5087169;28;20048;-83
2022/04/10 10:16:27;;;;;;;7.55;4.60;;;;;;;6.02;90.61;99567.78;5099785;28;20052;-83
2022/04/10 10:18:54;;;;;;;6.65;3.20;;;;;;;6.12;87.85;99557.81;5107986;28;20048;-83
2022/04/10 10:21:22;;;;;;;8.40;3.97;;;;;;;6.28;88.91;99557.22;5105321;28;20129;-83
2022/04/10 10:23:52;;;;;;;8.55;4.47;;;;;;;6.19;88.38;99561.63;5091147;28;20528;-83
2022/04/10 10:26:33;;;;;;;8.38;4.47;;;;;;;6.44;91.43;99543.06;5087853;28;20138;-82
2022/04/10 10:29:32;;;;;;;5.03;3.47;;;;;;;6.36;87.91;99553.75;5087586;28;20143;-83
2022/04/10 10:32:11;;;;;;;6.68;4.10;;;;;;;6.56;91.18;99543.72;5097677;28;20048;-83
2022/04/10 10:34:39;;;;;;;8.07;4.05;;;;;;;6.81;87.60;99533.22;5106686;28;20047;-83
2022/04/10 10:37:05;;;;;;;5.65;3.70;;;;;;;6.65;84.52;99540.09;5107402;28;20406;-83
2022/04/10 10:39:33;;;;;;;19.15;4.53;;;;;;;6.79;80.98;99552.28;5107783;28;20176;-83
2022/04/10 10:42:10;;;;;;;6.25;3.30;;;;;;;6.50;83.47;99534.38;5107761;28;20058;-83
2022/04/10 10:44:49;;;;;;;7.25;3.75;;;;;;;6.90;80.58;99540.41;5107787;28;20052;-83
2022/04/10 10:47:23;;;;;;;10.45;3.92;;;;;;;7.14;81.42;99530.88;5106161;28;20044;-83
2022/04/10 10:49:52;;;;;;;9.38;4.22;;;;;;;7.29;78.27;99533.84;5105374;28;20126;-83
2022/04/10 10:52:20;;;;;;;5.80;3.03;;;;;;;7.32;82.48;99525.47;5106717;28;20051;-83
2022/04/10 10:54:52;;;;;;;5.78;3.20;;;;;;;7.51;82.13;99516.31;5107318;28;20044;-83
2022/04/10 10:57:26;;;;;;;6.05;3.63;;;;;;;7.36;78.91;99540.34;5107429;28;20075;-83
2022/04/10 11:00:06;;;;;;;10.73;3.90;;;;;;;7.02;85.14;99525.66;5107337;28;20487;-83
2022/04/10 11:02:35;;;;;;;9.73;4.68;;;;;;;7.77;85.73;99538.84;5105846;28;20490;-83
2022/04/10 11:05:06;;;;;;;5.77;3.73;;;;;;;8.01;78.74;99536.44;5101324;28;20138;-83
2022/04/10 11:07:38;;;;;;;6.90;3.63;;;;;;;8.53;77.01;99532.88;5096036;28;20441;-84
2022/04/10 11:10:06;;;;;;;7.00;3.55;;;;;;;8.78;71.66;99521.13;5092830;28;20051;-84
2022/04/10 11:12:34;;;;;;;7.00;3.92;;;;;;;8.47;73.32;99515.41;5091353;28;20067;-84
2022/04/10 11:15:17;;;;;;;8.20;3.65;;;;;;;8.32;68.09;99521.44;5091925;28;20044;-84
2022/04/10 11:17:43;;;;;;;4.07;2.95;;;;;;;8.44;70.63;99511.16;5093736;28;20140;-84
2022/04/10 11:20:11;;;;;;;6.97;3.08;;;;;;;8.73;67.85;99498.22;5093287;28;20044;-84
2022/04/10 11:22:46;;;;;;;8.30;3.70;;;;;;;8.64;67.86;99524.44;5087995;28;20056;-84
2022/04/10 11:25:13;;;;;;;4.97;3.17;;;;;;;8.89;68.10;99500.16;5087302;28;20040;-84
2022/04/10 11:27:42;;;;;;;5.60;3.10;;;;;;;8.60;70.51;99507.69;5092599;28;20059;-84
2022/04/10 11:30:13;;;;;;;6.15;3.20;;;;;;;7.92;69.97;99503.94;5092447;28;20048;-84
